Time;durP1;ratioP1;P1;durP2;ratioP2;P2;SDS_P1;SDS_P2;PMS_P1;PMS_P2;Temp;Humidity;BMP_temperature;BMP_pressure;BME280_temperature;BME280_humidity;BME280_pressure;Samples;Min_cycle;Max_cycle;Signal;HPM_P1;HPM_P2
2023/11/27 00:01:45;;;;;;;14.40;10.20;;;;;;;-1.44;100.00;98381.75;109555;1251;67064;-79
2023/11/27 00:04:12;;;;;;;16.80;10.40;;;;;;;-1.47;100.00;98383.23;109298;1251;61184;-79
2023/11/27 00:06:39;;;;;;;17.40;11.30;;;;;;;-1.49;100.00;98383.65;109292;1251;62814;-78
2023/11/27 00:09:06;;;;;;;17.00;9.90;;;;;;;-1.51;100.00;98383.52;109625;1251;58985;-75
2023/11/27 00:11:33;;;;;;;17.90;10.90;;;;;;;-1.52;100.00;98382.16;109592;1251;59135;-78
2023/11/27 00:14:00;;;;;;;14.30;9.70;;;;;;;-1.52;100.00;98386.36;109519;1251;67056;-78
2023/11/27 00:16:27;;;;;;;15.90;9.40;;;;;;;-1.52;100.00;98383.56;109650;1251;61134;-77
2023/11/27 00:18:53;;;;;;;15.90;11.00;;;;;;;-1.52;100.00;98377.63;109576;1251;64076;-78
2023/11/27 00:21:20;;;;;;;16.30;10.60;;;;;;;-1.52;100.00;98375.35;109595;1251;59067;-77
2023/11/27 00:23:47;;;;;;;14.70;10.50;;;;;;;-1.53;100.00;98372.27;108825;1251;1006451;-77
2023/11/27 00:26:13;;;;;;;16.90;11.50;;;;;;;-1.53;100.00;98376.24;109582;1251;65963;-78
2023/11/27 00:28:40;;;;;;;15.20;10.50;;;;;;;-1.52;100.00;98377.11;109632;1251;60066;-77
2023/11/27 00:31:09;;;;;;;17.70;10.70;;;;;;;-1.52;100.00;98374.68;109566;1251;65076;-78
2023/11/27 00:33:36;;;;;;;15.50;11.20;;;;;;;-1.52;100.00;98376.94;109605;1251;59041;-77
2023/11/27 00:36:04;;;;;;;17.20;11.20;;;;;;;-1.51;100.00;98377.27;109520;1251;59023;-79
2023/11/27 00:38:30;;;;;;;17.70;11.20;;;;;;;-1.51;100.00;98376.20;109550;1250;67128;-77
2023/11/27 00:40:57;;;;;;;14.70;11.30;;;;;;;-1.51;100.00;98375.50;109440;1251;59067;-78
2023/11/27 00:43:23;;;;;;;18.00;9.90;;;;;;;-1.51;100.00;98377.27;109581;1251;73690;-78
2023/11/27 00:45:50;;;;;;;15.90;12.00;;;;;;;-1.52;100.00;98373.46;109584;1251;59048;-78
2023/11/27 00:48:16;;;;;;;14.20;11.40;;;;;;;-1.53;100.00;98374.16;109583;1251;59016;-78
2023/11/27 00:50:43;;;;;;;13.30;9.90;;;;;;;-1.54;100.00;98373.33;109581;1251;66017;-78
2023/11/27 00:53:10;;;;;;;18.50;13.80;;;;;;;-1.57;100.00;98369.56;109573;1251;61027;-78
2023/11/27 00:55:36;;;;;;;19.60;13.30;;;;;;;-1.59;100.00;98361.10;109600;1251;63973;-77
2023/11/27 00:58:03;;;;;;;18.10;11.50;;;;;;;-1.62;100.00;98356.84;109547;1251;58955;-78
2023/11/27 01:00:29;;;;;;;16.30;11.00;;;;;;;-1.67;100.00;98347.74;109609;1251;58996;-77
2023/11/27 01:02:56;;;;;;;18.90;12.50;;;;;;;-1.74;100.00;98341.50;108796;1254;1002225;-78
2023/11/27 01:05:23;;;;;;;17.60;11.90;;;;;;;-1.82;100.00;98332.50;109322;1254;60733;-78
2023/11/27 01:07:50;;;;;;;13.60;10.30;;;;;;;-1.91;100.00;98325.27;109472;1254;64871;-79
2023/11/27 01:10:17;;;;;;;20.90;13.60;;;;;;;-2.01;100.00;98326.36;109487;1254;59012;-78
2023/11/27 01:12:44;;;;;;;18.10;13.00;;;;;;;-2.10;100.00;98330.13;109522;1253;59017;-77
2023/11/27 01:15:11;;;;;;;19.50;13.70;;;;;;;-2.18;100.00;98329.99;108789;1252;1003016;-77
2023/11/27 01:17:38;;;;;;;17.80;13.30;;;;;;;-2.26;100.00;98324.27;109535;1254;60035;-77
2023/11/27 01:20:10;;;;;;;18.50;14.30;;;;;;;-2.32;100.00;98320.25;109321;1252;65027;-77
2023/11/27 01:22:37;;;;;;;16.40;12.60;;;;;;;-2.37;100.00;98324.39;109325;1252;59014;-78
2023/11/27 01:25:04;;;;;;;16.70;12.30;;;;;;;-2.41;100.00;98323.10;109564;1253;58942;-78
2023/11/27 01:27:34;;;;;;;17.20;11.90;;;;;;;-2.45;100.00;98314.67;109536;1254;66298;-78
2023/11/27 01:30:01;;;;;;;18.60;13.00;;;;;;;-2.50;100.00;98307.14;109558;1254;61062;-78
2023/11/27 01:32:28;;;;;;;18.80;14.10;;;;;;;-2.54;100.00;98305.34;109513;1253;64006;-78
2023/11/27 01:34:55;;;;;;;18.70;13.80;;;;;;;-2.57;100.00;98304.55;109494;1252;58989;-78
2023/11/27 01:37:22;;;;;;;19.30;13.50;;;;;;;-2.60;100.00;98299.77;109519;1253;59027;-78
2023/11/27 01:39:49;;;;;;;16.90;12.60;;;;;;;-2.64;100.00;98297.05;109568;1252;66154;-78
2023/11/27 01:42:15;;;;;;;21.00;13.00;;;;;;;-2.66;100.00;98281.48;109506;1253;61513;-78
2023/11/27 01:44:42;;;;;;;18.50;13.30;;;;;;;-2.67;100.00;98284.79;109516;1255;63992;-78
2023/11/27 01:47:09;;;;;;;21.10;15.00;;;;;;;-2.67;100.00;98286.88;109526;1254;58983;-78
2023/11/27 01:49:38;;;;;;;22.10;16.00;;;;;;;-2.66;100.00;98289.46;109560;1253;58870;-78
2023/11/27 01:52:06;;;;;;;21.10;15.10;;;;;;;-2.62;100.00;98293.38;109253;1254;66054;-78
2023/11/27 01:54:36;;;;;;;17.40;13.50;;;;;;;-2.56;100.00;98290.80;109555;1253;60001;-78
2023/11/27 01:57:04;;;;;;;18.60;13.50;;;;;;;-2.52;100.00;98289.63;109516;1255;64192;-78
2023/11/27 01:59:31;;;;;;;18.40;13.70;;;;;;;-2.46;100.00;98282.70;109513;1254;58967;-77
2023/11/27 02:01:58;;;;;;;21.60;14.10;;;;;;;-2.41;100.00;98276.83;109556;1253;59045;-77
2023/11/27 02:04:25;;;;;;;21.80;14.50;;;;;;;-2.36;100.00;98273.20;109622;1251;66026;-77
2023/11/27 02:06:51;;;;;;;20.60;14.90;;;;;;;-2.32;100.00;98275.02;108873;1251;1002203;-78
2023/11/27 02:09:18;;;;;;;16.80;13.00;;;;;;;-2.29;100.00;98268.67;108774;1251;1002789;-78
2023/11/27 02:11:49;;;;;;;16.30;11.80;;;;;;;-2.26;100.00;98267.55;109300;1251;59052;-78
2023/11/27 02:14:17;;;;;;;21.20;12.20;;;;;;;-2.23;100.00;98262.42;108829;1251;1002381;-78
2023/11/27 02:16:48;;;;;;;20.60;13.30;;;;;;;-2.19;100.00;98265.63;109538;1251;67316;-78
2023/11/27 02:19:14;;;;;;;15.50;12.00;;;;;;;-2.16;100.00;98267.64;109590;1250;60112;-78
2023/11/27 02:21:42;;;;;;;17.20;14.00;;;;;;;-2.12;100.00;98264.05;109544;1251;63997;-78
2023/11/27 02:24:09;;;;;;;16.50;13.50;;;;;;;-2.10;100.00;98259.29;109557;1251;58970;-79
2023/11/27 02:26:36;;;;;;;19.90;12.60;;;;;;;-2.07;100.00;98258.33;109440;1251;58978;-78
2023/11/27 02:29:03;;;;;;;16.20;13.00;;;;;;;-2.03;100.00;98255.80;109575;1251;67213;-77
2023/11/27 02:31:30;;;;;;;16.40;13.10;;;;;;;-2.01;100.00;98256.95;109623;1251;61103;-78
2023/11/27 02:33:57;;;;;;;17.80;14.10;;;;;;;-1.99;100.00;98257.22;109590;1251;65005;-78
2023/11/27 02:36:25;;;;;;;19.00;13.10;;;;;;;-1.95;100.00;98248.25;109562;1251;58951;-78
2023/11/27 02:38:52;;;;;;;18.90;12.60;;;;;;;-1.92;100.00;98251.30;108844;1251;1003065;-79
2023/11/27 02:41:19;;;;;;;16.80;11.70;;;;;;;-1.91;100.00;98244.98;109567;1251;66133;-77
2023/11/27 02:43:46;;;;;;;18.90;12.80;;;;;;;-1.87;100.00;98241.74;109589;1251;59988;-76
2023/11/27 02:46:13;;;;;;;16.70;11.80;;;;;;;-1.84;100.00;98240.77;109647;1251;65008;-78
2023/11/27 02:48:39;;;;;;;20.70;14.60;;;;;;;-1.81;100.00;98239.98;109581;1251;58989;-77
2023/11/27 02:51:06;;;;;;;19.50;14.00;;;;;;;-1.79;100.00;98228.63;109605;1251;59001;-78
2023/11/27 02:53:33;;;;;;;15.80;12.10;;;;;;;-1.77;100.00;98223.69;109566;1251;67174;-77
2023/11/27 02:56:00;;;;;;;17.60;12.40;;;;;;;-1.76;100.00;98223.14;109590;1251;61019;-77
2023/11/27 02:58:27;;;;;;;15.40;12.50;;;;;;;-1.76;100.00;98223.48;109562;1251;63902;-78
2023/11/27 03:00:53;;;;;;;16.10;12.50;;;;;;;-1.77;100.00;98216.36;109575;1251;59146;-77
2023/11/27 03:03:20;;;;;;;17.30;12.40;;;;;;;-1.75;100.00;98205.35;109580;1251;58969;-78
2023/11/27 03:05:46;;;;;;;21.00;15.60;;;;;;;-1.74;100.00;98191.39;109582;1251;66685;-78
2023/11/27 03:08:14;;;;;;;19.30;15.50;;;;;;;-1.73;100.00;98185.98;109618;1250;61110;-78
2023/11/27 03:10:41;;;;;;;21.20;16.00;;;;;;;-1.73;100.00;98193.80;109539;1251;64016;-78
2023/11/27 03:13:08;;;;;;;32.60;19.90;;;;;;;-1.73;100.00;98195.38;109588;1251;58954;-78
2023/11/27 03:15:34;;;;;;;17.70;14.00;;;;;;;-1.73;100.00;98201.13;109288;1251;58940;-78
2023/11/27 03:18:01;;;;;;;20.00;14.40;;;;;;;-1.73;100.00;98208.98;109529;1251;66992;-77
2023/11/27 03:20:27;;;;;;;16.90;13.80;;;;;;;-1.72;100.00;98205.10;109605;1251;60190;-76
2023/11/27 03:22:54;;;;;;;15.40;12.50;;;;;;;-1.71;100.00;98199.50;109547;1251;64189;-78
2023/11/27 03:25:21;;;;;;;17.00;12.80;;;;;;;-1.70;100.00;98195.46;109299;1251;59030;-77
2023/11/27 03:27:47;;;;;;;15.20;12.30;;;;;;;-1.70;100.00;98186.56;109555;1251;58973;-77
2023/11/27 03:30:14;;;;;;;19.10;13.00;;;;;;;-1.68;100.00;98185.31;109577;1251;67350;-76
2023/11/27 03:32:40;;;;;;;16.50;12.90;;;;;;;-1.68;100.00;98186.86;109652;1251;61030;-77
2023/11/27 03:35:08;;;;;;;18.20;14.80;;;;;;;-1.67;100.00;98182.98;109587;1251;65081;-76
2023/11/27 03:37:34;;;;;;;18.10;14.20;;;;;;;-1.65;100.00;98181.73;109558;1251;58966;-77
2023/11/27 03:40:02;;;;;;;18.90;13.80;;;;;;;-1.64;100.00;98179.06;109575;1251;58862;-77
2023/11/27 03:42:30;;;;;;;16.50;12.60;;;;;;;-1.63;100.00;98177.33;109380;1251;66069;-78
2023/11/27 03:44:56;;;;;;;18.20;13.60;;;;;;;-1.62;100.00;98182.86;109635;1251;60960;-78
2023/11/27 03:47:23;;;;;;;18.00;13.80;;;;;;;-1.62;100.00;98183.52;109588;1251;65043;-78
2023/11/27 03:49:50;;;;;;;21.20;16.30;;;;;;;-1.61;100.00;98189.59;109534;1251;58973;-78
2023/11/27 03:52:17;;;;;;;17.40;14.30;;;;;;;-1.59;100.00;98188.14;109635;1251;58912;-77
2023/11/27 03:54:43;;;;;;;17.40;13.10;;;;;;;-1.57;100.00;98188.94;109333;1251;66084;-78
2023/11/27 03:57:10;;;;;;;18.50;14.30;;;;;;;-1.54;100.00;98185.73;109607;1251;61090;-79
2023/11/27 03:59:36;;;;;;;22.60;16.60;;;;;;;-1.52;100.00;98183.23;109567;1251;65070;-78
2023/11/27 04:02:03;;;;;;;28.10;19.20;;;;;;;-1.50;100.00;98184.23;109580;1251;58937;-78
2023/11/27 04:04:30;;;;;;;37.30;22.10;;;;;;;-1.49;100.00;98182.42;109592;1251;59005;-78
2023/11/27 04:06:57;;;;;;;33.20;21.80;;;;;;;-1.47;100.00;98182.38;109593;1251;65768;-79
2023/11/27 04:09:23;;;;;;;20.50;15.60;;;;;;;-1.45;100.00;98183.35;109607;1251;61155;-78
2023/11/27 04:11:50;;;;;;;17.50;13.90;;;;;;;-1.42;100.00;98178.75;109557;1251;73608;-78
2023/11/27 04:14:16;;;;;;;20.10;14.00;;;;;;;-1.40;100.00;98177.45;109583;1251;58971;-78
2023/11/27 04:16:43;;;;;;;18.30;13.90;;;;;;;-1.37;100.00;98181.89;109603;1251;58997;-78
2023/11/27 04:19:10;;;;;;;18.20;13.80;;;;;;;-1.36;100.00;98186.73;109574;1251;65987;-78
2023/11/27 04:21:36;;;;;;;19.90;13.60;;;;;;;-1.36;100.00;98187.95;109552;1251;60056;-77
2023/11/27 04:24:03;;;;;;;17.40;13.90;;;;;;;-1.36;100.00;98181.33;109594;1251;65054;-77
2023/11/27 04:26:30;;;;;;;18.10;14.20;;;;;;;-1.37;100.00;98178.57;109387;1251;59425;-78
2023/11/27 04:28:57;;;;;;;21.20;17.40;;;;;;;-1.37;100.00;98173.35;109641;1251;59009;-77
2023/11/27 04:31:23;;;;;;;18.10;14.90;;;;;;;-1.38;100.00;98174.58;109610;1251;67032;-77
2023/11/27 04:33:50;;;;;;;18.60;13.70;;;;;;;-1.39;100.00;98171.83;108810;1251;1002807;-78
2023/11/27 04:36:18;;;;;;;20.90;15.50;;;;;;;-1.39;100.00;98171.33;109567;1251;65087;-78
2023/11/27 04:38:45;;;;;;;14.20;12.70;;;;;;;-1.39;100.00;98166.63;109548;1251;58916;-78
2023/11/27 04:41:12;;;;;;;14.50;12.80;;;;;;;-1.40;100.00;98165.40;109575;1251;59020;-78
2023/11/27 04:43:39;;;;;;;15.60;12.10;;;;;;;-1.42;100.00;98162.16;109622;1251;66963;-78
2023/11/27 04:46:07;;;;;;;15.60;12.30;;;;;;;-1.45;100.00;98159.66;109581;1251;61067;-78
2023/11/27 04:48:34;;;;;;;14.90;12.00;;;;;;;-1.48;100.00;98160.98;109537;1251;63832;-78
2023/11/27 04:51:04;;;;;;;13.90;11.90;;;;;;;-1.48;100.00;98166.36;109605;1251;59036;-78
2023/11/27 04:53:31;;;;;;;;;;;;;;;-1.48;100.00;98168.27;109359;1251;59001;-78
2023/11/27 04:55:58;;;;;;;14.80;11.10;;;;;;;-1.48;100.00;98171.08;109605;1251;65806;-78
2023/11/27 04:58:27;;;;;;;14.30;12.60;;;;;;;-1.49;100.00;98172.66;109623;1250;60045;-78
2023/11/27 05:00:54;;;;;;;15.00;11.50;;;;;;;-1.48;100.00;98171.98;109592;1251;65408;-77
2023/11/27 05:03:20;;;;;;;15.10;12.20;;;;;;;-1.48;100.00;98171.27;109527;1251;58965;-78
2023/11/27 05:05:48;;;;;;;15.70;12.10;;;;;;;-1.48;100.00;98175.27;109576;1251;59011;-77
2023/11/27 05:08:14;;;;;;;16.30;11.70;;;;;;;-1.49;100.00;98177.04;109531;1251;65947;-77
2023/11/27 05:10:41;;;;;;;13.90;12.20;;;;;;;-1.49;100.00;98177.58;109580;1251;59864;-78
2023/11/27 05:13:08;;;;;;;17.20;15.30;;;;;;;-1.49;100.00;98175.66;109243;1251;63970;-78
2023/11/27 05:15:35;;;;;;;16.80;14.10;;;;;;;-1.48;100.00;98181.55;109547;1251;58976;-79
2023/11/27 05:18:04;;;;;;;17.40;13.10;;;;;;;-1.48;100.00;98181.73;109455;1251;173390;-78
2023/11/27 05:20:31;;;;;;;15.40;11.80;;;;;;;-1.47;100.00;98181.88;109597;1251;65980;-78
2023/11/27 05:23:00;;;;;;;18.10;14.40;;;;;;;-1.47;100.00;98185.49;109671;1251;60975;-78
2023/11/27 05:25:28;;;;;;;13.90;10.80;;;;;;;-1.46;100.00;98190.02;109575;1251;65354;-77
2023/11/27 05:27:54;;;;;;;13.60;11.00;;;;;;;-1.48;100.00;98194.61;109258;1251;59086;-79
2023/11/27 05:30:21;;;;;;;12.90;11.40;;;;;;;-1.48;100.00;98194.27;109583;1251;59026;-78
2023/11/27 05:32:49;;;;;;;14.90;12.20;;;;;;;-1.49;100.00;98199.16;109587;1251;65830;-77
2023/11/27 05:35:16;;;;;;;14.00;11.30;;;;;;;-1.49;100.00;98195.52;109599;1251;61052;-79
2023/11/27 05:37:42;;;;;;;14.80;11.30;;;;;;;-1.49;100.00;98192.39;109592;1251;73818;-78
2023/11/27 05:40:10;;;;;;;12.80;11.40;;;;;;;-1.49;100.00;98188.70;109566;1251;58908;-78
2023/11/27 05:42:39;;;;;;;12.40;10.50;;;;;;;-1.49;100.00;98188.17;109217;1251;59037;-79
2023/11/27 05:45:10;;;;;;;13.30;11.70;;;;;;;-1.49;100.00;98188.71;109312;1251;66110;-77
2023/11/27 05:47:39;;;;;;;12.60;10.80;;;;;;;-1.49;100.00;98191.50;109608;1250;60202;-78
2023/11/27 05:50:09;;;;;;;13.40;12.00;;;;;;;-1.48;100.00;98196.36;109599;1250;64507;-78
2023/11/27 05:52:36;;;;;;;;;;;;;;;-1.48;100.00;98200.69;109435;1251;58948;-77
2023/11/27 05:55:03;;;;;;;15.40;12.80;;;;;;;-1.49;100.00;98196.02;109350;1251;59040;-77
2023/11/27 05:57:30;;;;;;;14.80;12.70;;;;;;;-1.49;100.00;98191.50;109589;1251;67051;-77
2023/11/27 05:59:57;;;;;;;15.00;12.60;;;;;;;-1.48;100.00;98187.98;109632;1251;61017;-77
2023/11/27 06:02:24;;;;;;;18.40;13.20;;;;;;;-1.50;100.00;98194.84;109566;1251;63699;-78
2023/11/27 06:04:51;;;;;;;18.80;14.40;;;;;;;-1.51;100.00;98191.23;109599;1251;58987;-78
2023/11/27 06:07:17;;;;;;;21.80;15.40;;;;;;;-1.51;100.00;98190.16;109606;1251;58983;-77
2023/11/27 06:09:44;;;;;;;19.70;14.70;;;;;;;-1.49;100.00;98197.59;109553;1251;67010;-77
2023/11/27 06:12:11;;;;;;;20.70;15.40;;;;;;;-1.49;100.00;98197.61;108858;1251;1003025;-79
2023/11/27 06:14:39;;;;;;;18.80;13.70;;;;;;;-1.49;100.00;98200.06;109580;1250;63749;-80
2023/11/27 06:17:06;;;;;;;17.00;14.50;;;;;;;-1.51;100.00;98207.76;109575;1251;58966;-79
2023/11/27 06:19:32;;;;;;;19.00;14.60;;;;;;;-1.53;100.00;98209.05;109549;1251;59045;-78
2023/11/27 06:21:59;;;;;;;21.10;15.80;;;;;;;-1.54;100.00;98210.46;109589;1251;67042;-78
2023/11/27 06:24:27;;;;;;;20.20;16.30;;;;;;;-1.55;100.00;98210.31;109574;1251;61093;-78
2023/11/27 06:26:54;;;;;;;22.70;15.50;;;;;;;-1.54;100.00;98202.27;109570;1251;64136;-77
2023/11/27 06:29:20;;;;;;;22.70;16.60;;;;;;;-1.52;100.00;98206.23;109585;1251;59054;-78
2023/11/27 06:31:47;;;;;;;21.70;16.20;;;;;;;-1.51;100.00;98204.44;108802;1251;1002862;-78
2023/11/27 06:34:15;;;;;;;19.40;16.10;;;;;;;-1.51;100.00;98202.35;109282;1251;66014;-77
2023/11/27 06:36:42;;;;;;;23.90;16.80;;;;;;;-1.50;100.00;98208.60;109589;1251;60996;-79
2023/11/27 06:39:08;;;;;;;24.10;18.00;;;;;;;-1.48;100.00;98212.38;109584;1251;64056;-77
2023/11/27 06:41:35;;;;;;;18.80;16.60;;;;;;;-1.46;100.00;98215.61;109522;1251;58980;-78
2023/11/27 06:44:01;;;;;;;21.40;16.70;;;;;;;-1.41;100.00;98211.81;109602;1251;58987;-79
2023/11/27 06:46:28;;;;;;;19.10;16.10;;;;;;;-1.37;100.00;98209.58;109630;1250;66028;-78
2023/11/27 06:48:55;;;;;;;18.20;13.40;;;;;;;-1.32;100.00;98211.52;109657;1251;60024;-77
2023/11/27 06:51:21;;;;;;;25.20;18.60;;;;;;;-1.27;100.00;98212.77;108853;1251;1002679;-78
2023/11/27 06:53:48;;;;;;;22.30;18.40;;;;;;;-1.25;100.00;98214.60;109558;1251;59021;-80
2023/11/27 06:56:14;;;;;;;25.30;20.50;;;;;;;-1.22;100.00;98210.85;109587;1251;58982;-77
2023/11/27 06:58:41;;;;;;;26.80;19.30;;;;;;;-1.20;100.00;98210.78;109570;1251;65974;-78
2023/11/27 07:01:11;;;;;;;24.70;19.90;;;;;;;-1.19;100.00;98217.02;109625;1251;61471;-78
2023/11/27 07:03:38;;;;;;;26.40;19.50;;;;;;;-1.18;100.00;98216.83;109538;1251;64028;-77
2023/11/27 07:06:06;;;;;;;22.90;18.70;;;;;;;-1.21;100.00;98214.47;109594;1251;59258;-78
2023/11/27 07:08:50;;;;;;;22.30;18.10;;;;;;;-1.22;100.00;98211.05;109627;1251;59160;-77
2023/11/27 07:11:35;;;;;;;31.50;22.30;;;;;;;-1.25;100.00;98217.05;109588;1250;64754;-78
2023/11/27 07:14:02;;;;;;;27.40;21.90;;;;;;;-1.27;100.00;98219.56;109599;1251;60755;-79
2023/11/27 07:16:30;;;;;;;26.40;21.40;;;;;;;-1.26;100.00;98222.66;109617;1251;64244;-79
2023/11/27 07:18:59;;;;;;;26.50;20.70;;;;;;;-1.22;100.00;98225.13;109588;1250;58956;-77
2023/11/27 07:21:27;;;;;;;27.60;20.00;;;;;;;-1.16;100.00;98226.35;109652;1251;59008;-78
2023/11/27 07:23:54;;;;;;;28.50;21.40;;;;;;;-1.08;100.00;98228.36;109598;1251;67100;-78
2023/11/27 07:26:21;;;;;;;27.60;22.60;;;;;;;-1.03;100.00;98226.43;109586;1251;61255;-77
2023/11/27 07:28:48;;;;;;;28.80;21.20;;;;;;;-0.99;100.00;98223.54;109577;1251;65100;-78
2023/11/27 07:31:16;;;;;;;29.10;21.80;;;;;;;-0.99;100.00;98226.66;109595;1250;59217;-79
2023/11/27 07:33:44;;;;;;;28.80;20.50;;;;;;;-0.97;100.00;98228.52;109632;1251;59092;-78
2023/11/27 07:36:11;;;;;;;27.80;20.70;;;;;;;-0.93;100.00;98228.74;109353;1251;66738;-77
2023/11/27 07:38:40;;;;;;;23.80;19.20;;;;;;;-0.91;100.00;98225.71;109567;1251;60872;-78
2023/11/27 07:41:08;;;;;;;25.60;19.50;;;;;;;-0.85;100.00;98223.58;109619;1251;64780;-79
2023/11/27 07:43:35;;;;;;;24.80;18.30;;;;;;;-0.78;100.00;98221.95;109553;1251;59062;-77
2023/11/27 07:46:06;;;;;;;23.10;17.90;;;;;;;-0.73;100.00;98222.83;109620;1251;58941;-80
2023/11/27 07:48:36;;;;;;;28.20;19.80;;;;;;;-0.74;100.00;98225.14;109563;1251;66958;-78
2023/11/27 07:51:06;;;;;;;;;;;;;;;-0.71;100.00;98228.19;109674;1251;61103;-77
2023/11/27 07:53:33;;;;;;;25.10;18.10;;;;;;;-0.69;100.00;98225.49;109600;1251;64124;-77
2023/11/27 07:56:00;;;;;;;22.50;18.00;;;;;;;-0.68;100.00;98229.48;109355;1251;59003;-79
2023/11/27 07:58:28;;;;;;;22.10;17.20;;;;;;;-0.72;100.00;98234.31;109381;1251;58941;-81
2023/11/27 08:00:54;;;;;;;27.60;18.80;;;;;;;-0.79;100.00;98239.78;109623;1251;65978;-81
2023/11/27 08:03:21;;;;;;;23.40;17.00;;;;;;;-0.84;100.00;98238.57;109585;1251;61099;-77
2023/11/27 08:05:48;;;;;;;22.80;16.40;;;;;;;-0.82;100.00;98243.20;109588;1251;65214;-78
2023/11/27 08:08:15;;;;;;;22.90;16.60;;;;;;;-0.77;100.00;98239.36;109578;1251;59076;-77
2023/11/27 08:10:42;;;;;;;23.30;18.30;;;;;;;-0.76;100.00;98237.23;109651;1253;59020;-77
2023/11/27 08:13:09;;;;;;;29.80;22.00;;;;;;;-0.79;100.00;98234.73;109612;1250;67079;-78
2023/11/27 08:15:36;;;;;;;24.40;18.70;;;;;;;-0.82;100.00;98232.02;109573;1251;61007;-77
2023/11/27 08:18:04;;;;;;;26.60;19.50;;;;;;;-0.80;100.00;98230.93;109626;1251;64080;-78
2023/11/27 08:20:32;;;;;;;27.20;19.20;;;;;;;-0.80;100.00;98228.83;109553;1251;58943;-78
2023/11/27 08:22:59;;;;;;;23.20;18.20;;;;;;;-0.84;100.00;98229.66;109373;1251;59049;-80
2023/11/27 08:25:27;;;;;;;25.10;18.80;;;;;;;-0.92;100.00;98233.23;109529;1250;67087;-80
2023/11/27 08:27:55;;;;;;;27.30;19.50;;;;;;;-0.98;100.00;98238.31;109620;1250;60164;-78
2023/11/27 08:30:22;;;;;;;26.40;19.90;;;;;;;-0.96;100.00;98239.63;109576;1251;65037;-78
2023/11/27 08:32:49;;;;;;;29.60;19.90;;;;;;;-0.92;100.00;98239.50;109351;1251;58997;-77
2023/11/27 08:35:17;;;;;;;29.70;21.00;;;;;;;-0.94;100.00;98237.66;109577;1251;59010;-78
2023/11/27 08:37:44;;;;;;;30.90;21.90;;;;;;;-0.96;100.00;98240.67;109633;1251;66715;-77
2023/11/27 08:40:12;;;;;;;25.30;19.30;;;;;;;-0.95;100.00;98245.38;109594;1251;61073;-79
2023/11/27 08:42:39;;;;;;;27.40;19.10;;;;;;;-0.96;100.00;98243.12;109588;1251;62476;-77
2023/11/27 08:45:10;;;;;;;29.10;20.70;;;;;;;-0.96;100.00;98243.84;109559;1251;59005;-79
2023/11/27 08:47:41;;;;;;;26.10;20.10;;;;;;;-0.98;100.00;98239.02;109565;1251;59004;-78
2023/11/27 08:50:09;;;;;;;27.50;19.60;;;;;;;-1.00;100.00;98237.16;109580;1250;74666;-77
2023/11/27 08:52:36;;;;;;;27.50;19.10;;;;;;;-1.04;100.00;98236.61;109680;1250;61104;-78
2023/11/27 08:55:05;;;;;;;28.30;22.30;;;;;;;-1.08;100.00;98231.86;109610;1251;65301;-77
2023/11/27 08:57:32;;;;;;;31.40;22.30;;;;;;;-1.11;100.00;98232.27;109594;1251;59044;-77
2023/11/27 09:00:02;;;;;;;31.00;22.80;;;;;;;-1.16;100.00;98236.27;109592;1251;58917;-77
2023/11/27 09:02:29;;;;;;;30.40;21.70;;;;;;;-1.19;100.00;98234.27;109578;1251;67442;-77
2023/11/27 09:04:56;;;;;;;27.40;20.10;;;;;;;-1.22;100.00;98237.70;109597;1251;61205;-78
2023/11/27 09:07:23;;;;;;;30.10;21.20;;;;;;;-1.26;100.00;98234.69;109628;1250;65157;-78
2023/11/27 09:09:49;;;;;;;27.90;19.60;;;;;;;-1.30;100.00;98229.08;109599;1251;59244;-78
2023/11/27 09:12:16;;;;;;;26.70;18.20;;;;;;;-1.33;100.00;98228.80;109648;1251;59023;-79
2023/11/27 09:14:42;;;;;;;23.90;18.70;;;;;;;-1.32;100.00;98229.29;109617;1251;66979;-78
2023/11/27 09:17:10;;;;;;;27.90;19.00;;;;;;;-1.28;100.00;98227.98;109377;1251;60309;-78
2023/11/27 09:19:37;;;;;;;22.40;17.60;;;;;;;-1.27;100.00;98229.66;109606;1251;64116;-78
2023/11/27 09:22:04;;;;;;;23.60;17.40;;;;;;;-1.22;100.00;98231.77;109548;1251;58985;-78
2023/11/27 09:24:31;;;;;;;17.50;13.30;;;;;;;-1.12;100.00;98227.08;109360;1251;59802;-79
2023/11/27 09:27:01;;;;;;;21.10;14.60;;;;;;;-1.02;100.00;98223.95;109597;1251;66165;-78
2023/11/27 09:29:28;;;;;;;18.40;14.50;;;;;;;-0.90;100.00;98220.45;109564;1251;60102;-78
2023/11/27 09:31:55;;;;;;;17.30;12.90;;;;;;;-0.78;100.00;98217.95;109540;1251;64069;-78
2023/11/27 09:34:22;;;;;;;14.70;9.60;;;;;;;-0.66;100.00;98211.11;109581;1251;58971;-78
2023/11/27 09:36:48;;;;;;;14.40;10.30;;;;;;;-0.58;100.00;98211.88;109583;1251;58866;-78
2023/11/27 09:39:17;;;;;;;16.40;10.90;;;;;;;-0.47;100.00;98211.14;109593;1251;67003;-78
2023/11/27 09:41:44;;;;;;;15.40;11.30;;;;;;;-0.36;100.00;98208.30;109611;1251;61032;-79
2023/11/27 09:44:13;;;;;;;12.60;9.70;;;;;;;-0.26;100.00;98198.52;109554;1251;65485;-79
2023/11/27 09:46:46;;;;;;;11.90;9.30;;;;;;;-0.22;100.00;98198.88;109591;1251;59051;-78
2023/11/27 09:49:15;;;;;;;12.40;8.90;;;;;;;-0.17;100.00;98196.29;109618;1251;59043;-79
2023/11/27 09:51:46;;;;;;;9.90;7.10;;;;;;;-0.12;100.00;98192.94;109616;1250;67431;-79
2023/11/27 09:54:19;;;;;;;9.80;6.80;;;;;;;-0.08;100.00;98186.34;109554;1251;61006;-78
2023/11/27 09:56:46;;;;;;;9.10;6.30;;;;;;;-0.07;100.00;98182.48;109600;1251;65035;-78
2023/11/27 09:59:13;;;;;;;9.60;7.00;;;;;;;-0.06;100.00;98186.12;109611;1251;58963;-79
2023/11/27 10:01:42;;;;;;;10.70;7.80;;;;;;;-0.03;100.00;98183.17;109592;1251;59023;-78
2023/11/27 10:04:09;;;;;;;10.40;7.50;;;;;;;0.01;100.00;98177.09;109612;1250;67025;-78
2023/11/27 10:06:42;;;;;;;9.80;6.70;;;;;;;0.07;100.00;98173.55;109647;1251;60754;-78
2023/11/27 10:09:13;;;;;;;8.20;6.70;;;;;;;0.11;100.00;98171.12;109542;1251;65168;-79
2023/11/27 10:11:41;;;;;;;7.90;6.20;;;;;;;0.12;100.00;98165.67;109552;1251;59067;-79
2023/11/27 10:14:08;;;;;;;7.40;5.90;;;;;;;0.19;100.00;98165.60;109577;1251;58847;-78
2023/11/27 10:16:36;;;;;;;7.40;5.60;;;;;;;0.29;100.00;98162.77;109654;1251;66945;-77
2023/11/27 10:19:08;;;;;;;10.20;6.20;;;;;;;0.35;100.00;98163.76;109603;1251;60124;-78
2023/11/27 10:21:36;;;;;;;10.80;7.50;;;;;;;0.38;100.00;98164.33;109585;1253;64041;-78
2023/11/27 10:24:10;;;;;;;9.80;7.40;;;;;;;0.42;100.00;98158.41;109613;1251;58941;-78
2023/11/27 10:26:40;;;;;;;10.80;8.80;;;;;;;0.50;100.00;98154.09;109413;1251;59247;-77
2023/11/27 10:29:07;;;;;;;11.60;8.00;;;;;;;0.58;100.00;98154.45;109584;1251;67039;-78
2023/11/27 10:31:35;;;;;;;10.40;7.30;;;;;;;0.60;100.00;98154.54;109599;1251;61188;-78
2023/11/27 10:34:03;;;;;;;15.00;10.10;;;;;;;0.58;100.00;98152.34;109559;1251;64778;-78
2023/11/27 10:36:30;;;;;;;20.80;12.00;;;;;;;0.59;100.00;98152.65;109574;1251;58917;-78
2023/11/27 10:39:00;;;;;;;17.70;11.70;;;;;;;0.60;100.00;98151.91;109632;1251;59031;-77
2023/11/27 10:41:29;;;;;;;14.00;10.20;;;;;;;0.66;100.00;98143.81;109660;1250;67147;-78
2023/11/27 10:43:58;;;;;;;17.30;11.20;;;;;;;0.73;100.00;98139.52;109570;1253;61071;-78
2023/11/27 10:46:29;;;;;;;15.90;10.70;;;;;;;0.77;100.00;98138.29;109570;1251;65345;-78
2023/11/27 10:48:59;;;;;;;19.00;12.90;;;;;;;0.76;100.00;98139.20;109580;1251;58953;-78
2023/11/27 10:51:31;;;;;;;19.90;12.70;;;;;;;0.74;100.00;98136.32;109620;1251;58894;-78
2023/11/27 10:54:00;;;;;;;17.70;12.20;;;;;;;0.73;100.00;98131.45;109627;1251;65926;-79
2023/11/27 10:56:30;;;;;;;18.90;12.10;;;;;;;0.72;100.00;98126.64;109201;1256;61080;-78
2023/11/27 10:59:05;;;;;;;18.70;13.30;;;;;;;0.73;100.00;98122.05;109329;1251;65007;-79
2023/11/27 11:01:39;;;;;;;20.20;12.70;;;;;;;0.80;100.00;98119.98;109598;1251;59018;-79
2023/11/27 11:04:30;;;;;;;19.00;12.30;;;;;;;0.90;100.00;98111.91;109587;1251;60686;-77
2023/11/27 11:07:02;;;;;;;18.60;12.80;;;;;;;0.92;100.00;98111.81;107442;1259;1003078;-77